sensor_id;sensor_type;location;lat;lon;timestamp;P1;durP1;ratioP1;P2;durP2;ratioP2
67076;SDS011;53991;46.364;17.008;2022-09-09T00:01:37;1.30;;;1.05;;
67076;SDS011;53991;46.364;17.008;2022-09-09T00:04:52;3.53;;;1.50;;
67076;SDS011;53991;46.364;17.008;2022-09-09T00:08:06;3.38;;;1.33;;
67076;SDS011;53991;46.364;17.008;2022-09-09T00:11:23;4.35;;;1.48;;
67076;SDS011;53991;46.364;17.008;2022-09-09T00:14:49;4.72;;;1.60;;
67076;SDS011;53991;46.364;17.008;2022-09-09T00:18:01;2.50;;;1.00;;
67076;SDS011;53991;46.364;17.008;2022-09-09T00:21:11;0.70;;;0.70;;
67076;SDS011;53991;46.364;17.008;2022-09-09T00:24:26;3.25;;;0.82;;
67076;SDS011;53991;46.364;17.008;2022-09-09T00:27:48;2.50;;;1.33;;
67076;SDS011;53991;46.364;17.008;2022-09-09T00:30:51;2.80;;;1.05;;
67076;SDS011;53991;46.364;17.008;2022-09-09T00:36:58;1.23;;;1.10;;
67076;SDS011;53991;46.364;17.008;2022-09-09T00:40:01;1.52;;;0.70;;
67076;SDS011;53991;46.364;17.008;2022-09-09T00:43:12;1.95;;;1.05;;
67076;SDS011;53991;46.364;17.008;2022-09-09T00:49:51;1.80;;;0.95;;
67076;SDS011;53991;46.364;17.008;2022-09-09T00:53:15;4.32;;;0.95;;
67076;SDS011;53991;46.364;17.008;2022-09-09T00:56:33;3.30;;;0.90;;
67076;SDS011;53991;46.364;17.008;2022-09-09T00:59:50;1.85;;;0.80;;
67076;SDS011;53991;46.364;17.008;2022-09-09T01:06:32;2.30;;;0.68;;
67076;SDS011;53991;46.364;17.008;2022-09-09T01:09:42;4.30;;;1.35;;
67076;SDS011;53991;46.364;17.008;2022-09-09T01:12:46;2.05;;;0.73;;
67076;SDS011;53991;46.364;17.008;2022-09-09T01:15:50;3.35;;;0.65;;
67076;SDS011;53991;46.364;17.008;2022-09-09T01:18:52;3.33;;;0.80;;
67076;SDS011;53991;46.364;17.008;2022-09-09T01:21:57;2.08;;;0.73;;
67076;SDS011;53991;46.364;17.008;2022-09-09T01:28:21;1.85;;;0.60;;
67076;SDS011;53991;46.364;17.008;2022-09-09T01:31:28;0.95;;;0.70;;
67076;SDS011;53991;46.364;17.008;2022-09-09T01:34:38;1.48;;;0.70;;
67076;SDS011;53991;46.364;17.008;2022-09-09T01:37:41;2.45;;;0.90;;
67076;SDS011;53991;46.364;17.008;2022-09-09T01:40:43;1.17;;;0.85;;
67076;SDS011;53991;46.364;17.008;2022-09-09T01:46:48;4.20;;;0.70;;
67076;SDS011;53991;46.364;17.008;2022-09-09T01:49:50;3.30;;;1.30;;
67076;SDS011;53991;46.364;17.008;2022-09-09T01:52:54;2.67;;;0.93;;
67076;SDS011;53991;46.364;17.008;2022-09-09T01:56:04;1.02;;;0.93;;
67076;SDS011;53991;46.364;17.008;2022-09-09T01:59:48;3.33;;;1.63;;
67076;SDS011;53991;46.364;17.008;2022-09-09T02:09:23;1.98;;;1.67;;
67076;SDS011;53991;46.364;17.008;2022-09-09T02:12:27;1.60;;;0.88;;
67076;SDS011;53991;46.364;17.008;2022-09-09T02:15:34;1.85;;;0.70;;
67076;SDS011;53991;46.364;17.008;2022-09-09T02:19:08;1.10;;;0.90;;
67076;SDS011;53991;46.364;17.008;2022-09-09T02:22:19;1.88;;;1.25;;
67076;SDS011;53991;46.364;17.008;2022-09-09T02:25:25;1.25;;;0.80;;
67076;SDS011;53991;46.364;17.008;2022-09-09T02:28:29;3.10;;;1.08;;
67076;SDS011;53991;46.364;17.008;2022-09-09T02:31:34;2.63;;;1.20;;
67076;SDS011;53991;46.364;17.008;2022-09-09T02:34:40;4.35;;;1.30;;
67076;SDS011;53991;46.364;17.008;2022-09-09T02:37:48;3.90;;;1.23;;
67076;SDS011;53991;46.364;17.008;2022-09-09T02:40:54;3.60;;;1.45;;
67076;SDS011;53991;46.364;17.008;2022-09-09T02:43:56;4.72;;;1.10;;
67076;SDS011;53991;46.364;17.008;2022-09-09T02:47:02;1.10;;;1.00;;
67076;SDS011;53991;46.364;17.008;2022-09-09T02:50:26;6.78;;;1.55;;
67076;SDS011;53991;46.364;17.008;2022-09-09T02:53:43;1.27;;;0.88;;
67076;SDS011;53991;46.364;17.008;2022-09-09T03:00:22;8.60;;;1.65;;
67076;SDS011;53991;46.364;17.008;2022-09-09T03:03:28;2.95;;;1.35;;
67076;SDS011;53991;46.364;17.008;2022-09-09T03:06:30;3.53;;;1.50;;
67076;SDS011;53991;46.364;17.008;2022-09-09T03:09:32;4.10;;;0.98;;
67076;SDS011;53991;46.364;17.008;2022-09-09T03:12:34;7.82;;;1.50;;
67076;SDS011;53991;46.364;17.008;2022-09-09T03:15:36;2.65;;;1.50;;
67076;SDS011;53991;46.364;17.008;2022-09-09T03:18:38;3.33;;;1.13;;
67076;SDS011;53991;46.364;17.008;2022-09-09T03:21:40;3.88;;;1.35;;
67076;SDS011;53991;46.364;17.008;2022-09-09T03:24:43;2.67;;;1.13;;
67076;SDS011;53991;46.364;17.008;2022-09-09T03:27:44;1.65;;;1.50;;
67076;SDS011;53991;46.364;17.008;2022-09-09T03:30:47;2.25;;;1.20;;
67076;SDS011;53991;46.364;17.008;2022-09-09T03:33:49;2.80;;;1.33;;
67076;SDS011;53991;46.364;17.008;2022-09-09T03:36:50;1.60;;;1.10;;
67076;SDS011;53991;46.364;17.008;2022-09-09T03:39:52;3.78;;;1.40;;
67076;SDS011;53991;46.364;17.008;2022-09-09T03:45:57;7.90;;;1.50;;
67076;SDS011;53991;46.364;17.008;2022-09-09T03:48:59;2.33;;;1.25;;
67076;SDS011;53991;46.364;17.008;2022-09-09T03:52:01;3.90;;;1.38;;
67076;SDS011;53991;46.364;17.008;2022-09-09T03:55:03;5.80;;;1.60;;
67076;SDS011;53991;46.364;17.008;2022-09-09T03:58:06;2.60;;;1.70;;
67076;SDS011;53991;46.364;17.008;2022-09-09T04:01:09;4.15;;;1.88;;
67076;SDS011;53991;46.364;17.008;2022-09-09T04:04:13;3.20;;;1.48;;
67076;SDS011;53991;46.364;17.008;2022-09-09T04:07:15;4.32;;;1.52;;
67076;SDS011;53991;46.364;17.008;2022-09-09T04:10:17;3.90;;;1.42;;
67076;SDS011;53991;46.364;17.008;2022-09-09T04:13:20;3.13;;;1.83;;
67076;SDS011;53991;46.364;17.008;2022-09-09T04:16:22;4.82;;;2.13;;
67076;SDS011;53991;46.364;17.008;2022-09-09T04:19:24;3.70;;;1.77;;
67076;SDS011;53991;46.364;17.008;2022-09-09T04:22:25;3.47;;;2.05;;
67076;SDS011;53991;46.364;17.008;2022-09-09T04:25:27;5.38;;;2.45;;
67076;SDS011;53991;46.364;17.008;2022-09-09T04:28:30;2.25;;;1.90;;
67076;SDS011;53991;46.364;17.008;2022-09-09T04:31:34;2.35;;;1.85;;
67076;SDS011;53991;46.364;17.008;2022-09-09T04:34:36;2.25;;;1.58;;
67076;SDS011;53991;46.364;17.008;2022-09-09T04:37:39;2.97;;;1.60;;
67076;SDS011;53991;46.364;17.008;2022-09-09T04:40:42;2.60;;;2.15;;
67076;SDS011;53991;46.364;17.008;2022-09-09T04:43:45;4.30;;;2.20;;
67076;SDS011;53991;46.364;17.008;2022-09-09T04:46:47;6.13;;;2.28;;
67076;SDS011;53991;46.364;17.008;2022-09-09T04:49:49;3.40;;;2.08;;
67076;SDS011;53991;46.364;17.008;2022-09-09T04:52:51;3.10;;;1.67;;
67076;SDS011;53991;46.364;17.008;2022-09-09T04:56:00;3.25;;;2.13;;
67076;SDS011;53991;46.364;17.008;2022-09-09T04:59:04;3.13;;;2.17;;
67076;SDS011;53991;46.364;17.008;2022-09-09T05:02:05;5.57;;;3.13;;
67076;SDS011;53991;46.364;17.008;2022-09-09T05:05:08;5.03;;;2.38;;
67076;SDS011;53991;46.364;17.008;2022-09-09T05:08:10;5.15;;;2.28;;
67076;SDS011;53991;46.364;17.008;2022-09-09T05:11:13;5.18;;;2.58;;
67076;SDS011;53991;46.364;17.008;2022-09-09T05:14:21;7.20;;;3.60;;
67076;SDS011;53991;46.364;17.008;2022-09-09T05:17:23;4.40;;;3.03;;
67076;SDS011;53991;46.364;17.008;2022-09-09T05:20:25;5.28;;;3.08;;
67076;SDS011;53991;46.364;17.008;2022-09-09T05:23:27;7.50;;;3.63;;
67076;SDS011;53991;46.364;17.008;2022-09-09T05:26:29;5.82;;;3.85;;
67076;SDS011;53991;46.364;17.008;2022-09-09T05:29:31;9.43;;;2.55;;
67076;SDS011;53991;46.364;17.008;2022-09-09T05:32:34;4.28;;;2.22;;
67076;SDS011;53991;46.364;17.008;2022-09-09T05:35:35;5.53;;;2.92;;
67076;SDS011;53991;46.364;17.008;2022-09-09T05:38:37;16.05;;;8.52;;
67076;SDS011;53991;46.364;17.008;2022-09-09T05:41:40;21.40;;;12.88;;
67076;SDS011;53991;46.364;17.008;2022-09-09T05:44:42;21.70;;;11.82;;
67076;SDS011;53991;46.364;17.008;2022-09-09T05:47:44;11.48;;;8.35;;
67076;SDS011;53991;46.364;17.008;2022-09-09T05:50:52;15.90;;;7.50;;
67076;SDS011;53991;46.364;17.008;2022-09-09T05:53:54;11.75;;;6.50;;
67076;SDS011;53991;46.364;17.008;2022-09-09T05:56:56;18.77;;;10.48;;
67076;SDS011;53991;46.364;17.008;2022-09-09T05:59:58;20.88;;;10.73;;
67076;SDS011;53991;46.364;17.008;2022-09-09T06:03:00;21.05;;;12.32;;
67076;SDS011;53991;46.364;17.008;2022-09-09T06:06:06;15.55;;;10.38;;
67076;SDS011;53991;46.364;17.008;2022-09-09T06:09:09;18.90;;;9.57;;
67076;SDS011;53991;46.364;17.008;2022-09-09T06:12:11;14.82;;;8.48;;
67076;SDS011;53991;46.364;17.008;2022-09-09T06:15:13;14.93;;;8.73;;
67076;SDS011;53991;46.364;17.008;2022-09-09T06:18:15;12.55;;;7.60;;
67076;SDS011;53991;46.364;17.008;2022-09-09T06:21:18;11.77;;;7.00;;
67076;SDS011;53991;46.364;17.008;2022-09-09T06:24:21;16.48;;;7.53;;
67076;SDS011;53991;46.364;17.008;2022-09-09T06:27:23;14.02;;;8.02;;
67076;SDS011;53991;46.364;17.008;2022-09-09T06:30:25;16.60;;;7.20;;
67076;SDS011;53991;46.364;17.008;2022-09-09T06:33:30;8.75;;;5.97;;
67076;SDS011;53991;46.364;17.008;2022-09-09T06:36:34;7.03;;;4.45;;
67076;SDS011;53991;46.364;17.008;2022-09-09T06:39:38;6.13;;;3.83;;
67076;SDS011;53991;46.364;17.008;2022-09-09T06:42:40;5.78;;;3.40;;
67076;SDS011;53991;46.364;17.008;2022-09-09T06:45:42;7.85;;;3.63;;
67076;SDS011;53991;46.364;17.008;2022-09-09T06:48:44;5.10;;;2.30;;
67076;SDS011;53991;46.364;17.008;2022-09-09T06:54:48;3.58;;;2.00;;
67076;SDS011;53991;46.364;17.008;2022-09-09T06:57:50;2.78;;;2.17;;
67076;SDS011;53991;46.364;17.008;2022-09-09T07:00:52;21.08;;;2.38;;
67076;SDS011;53991;46.364;17.008;2022-09-09T07:03:55;2.42;;;2.17;;
67076;SDS011;53991;46.364;17.008;2022-09-09T07:06:58;4.93;;;2.25;;
67076;SDS011;53991;46.364;17.008;2022-09-09T07:09:59;2.85;;;2.10;;
67076;SDS011;53991;46.364;17.008;2022-09-09T07:13:01;7.75;;;2.05;;
67076;SDS011;53991;46.364;17.008;2022-09-09T07:16:04;1.90;;;1.73;;
67076;SDS011;53991;46.364;17.008;2022-09-09T07:19:07;6.57;;;1.67;;
67076;SDS011;53991;46.364;17.008;2022-09-09T07:22:09;52.30;;;27.63;;
67076;SDS011;53991;46.364;17.008;2022-09-09T07:25:11;84.32;;;47.80;;
67076;SDS011;53991;46.364;17.008;2022-09-09T07:28:13;98.88;;;53.15;;
67076;SDS011;53991;46.364;17.008;2022-09-09T07:34:31;55.03;;;31.92;;
67076;SDS011;53991;46.364;17.008;2022-09-09T07:37:35;28.77;;;16.27;;
67076;SDS011;53991;46.364;17.008;2022-09-09T07:40:38;21.08;;;11.63;;
67076;SDS011;53991;46.364;17.008;2022-09-09T07:43:40;13.20;;;8.13;;
67076;SDS011;53991;46.364;17.008;2022-09-09T07:46:43;10.90;;;7.28;;
67076;SDS011;53991;46.364;17.008;2022-09-09T07:49:46;30.58;;;19.05;;
67076;SDS011;53991;46.364;17.008;2022-09-09T07:55:51;16.02;;;7.97;;
67076;SDS011;53991;46.364;17.008;2022-09-09T07:58:54;11.35;;;6.40;;
67076;SDS011;53991;46.364;17.008;2022-09-09T08:01:56;11.20;;;6.18;;
67076;SDS011;53991;46.364;17.008;2022-09-09T08:04:58;8.07;;;4.38;;
67076;SDS011;53991;46.364;17.008;2022-09-09T08:08:00;6.13;;;3.45;;
67076;SDS011;53991;46.364;17.008;2022-09-09T08:11:04;3.38;;;2.13;;
67076;SDS011;53991;46.364;17.008;2022-09-09T08:14:07;7.88;;;1.90;;
67076;SDS011;53991;46.364;17.008;2022-09-09T08:17:10;3.40;;;1.65;;
67076;SDS011;53991;46.364;17.008;2022-09-09T08:20:12;2.92;;;1.70;;
67076;SDS011;53991;46.364;17.008;2022-09-09T08:23:14;1.73;;;1.60;;
67076;SDS011;53991;46.364;17.008;2022-09-09T08:26:17;8.60;;;5.93;;
67076;SDS011;53991;46.364;17.008;2022-09-09T08:29:21;13.63;;;8.35;;
67076;SDS011;53991;46.364;17.008;2022-09-09T08:32:23;18.70;;;11.05;;
67076;SDS011;53991;46.364;17.008;2022-09-09T08:35:25;4.70;;;2.33;;
67076;SDS011;53991;46.364;17.008;2022-09-09T08:38:27;4.18;;;2.78;;
67076;SDS011;53991;46.364;17.008;2022-09-09T08:44:57;2.97;;;2.13;;
67076;SDS011;53991;46.364;17.008;2022-09-09T08:48:26;1.70;;;1.60;;
67076;SDS011;53991;46.364;17.008;2022-09-09T08:51:43;2.13;;;1.35;;
67076;SDS011;53991;46.364;17.008;2022-09-09T08:54:45;4.60;;;2.45;;
67076;SDS011;53991;46.364;17.008;2022-09-09T08:57:53;4.38;;;2.00;;
67076;SDS011;53991;46.364;17.008;2022-09-09T09:11:09;5.15;;;2.80;;
67076;SDS011;53991;46.364;17.008;2022-09-09T09:14:21;4.47;;;1.77;;
67076;SDS011;53991;46.364;17.008;2022-09-09T09:17:28;3.38;;;1.30;;
67076;SDS011;53991;46.364;17.008;2022-09-09T09:20:40;3.67;;;1.75;;
67076;SDS011;53991;46.364;17.008;2022-09-09T09:24:03;7.90;;;2.95;;
67076;SDS011;53991;46.364;17.008;2022-09-09T09:27:28;12.82;;;4.68;;
67076;SDS011;53991;46.364;17.008;2022-09-09T09:33:55;7.28;;;4.93;;
67076;SDS011;53991;46.364;17.008;2022-09-09T09:36:58;7.38;;;2.20;;
67076;SDS011;53991;46.364;17.008;2022-09-09T09:40:11;3.10;;;1.67;;
67076;SDS011;53991;46.364;17.008;2022-09-09T09:43:18;2.50;;;2.00;;
67076;SDS011;53991;46.364;17.008;2022-09-09T09:46:25;2.85;;;1.92;;
67076;SDS011;53991;46.364;17.008;2022-09-09T09:49:28;6.40;;;2.35;;
67076;SDS011;53991;46.364;17.008;2022-09-09T09:52:30;2.90;;;1.40;;
67076;SDS011;53991;46.364;17.008;2022-09-09T09:55:33;5.07;;;2.60;;
67076;SDS011;53991;46.364;17.008;2022-09-09T10:01:51;4.25;;;1.60;;
67076;SDS011;53991;46.364;17.008;2022-09-09T10:05:03;7.30;;;1.73;;
67076;SDS011;53991;46.364;17.008;2022-09-09T10:14:30;4.72;;;2.22;;
67076;SDS011;53991;46.364;17.008;2022-09-09T10:17:56;5.38;;;1.33;;
67076;SDS011;53991;46.364;17.008;2022-09-09T10:27:43;1.75;;;1.08;;
67076;SDS011;53991;46.364;17.008;2022-09-09T10:31:10;3.03;;;0.88;;
67076;SDS011;53991;46.364;17.008;2022-09-09T10:40:34;3.15;;;1.23;;
67076;SDS011;53991;46.364;17.008;2022-09-09T11:00:36;3.05;;;0.80;;
67076;SDS011;53991;46.364;17.008;2022-09-09T11:03:41;1.85;;;1.08;;
67076;SDS011;53991;46.364;17.008;2022-09-09T11:06:49;2.75;;;0.63;;
67076;SDS011;53991;46.364;17.008;2022-09-09T11:09:58;1.55;;;0.93;;
67076;SDS011;53991;46.364;17.008;2022-09-09T11:13:04;2.70;;;0.65;;
67076;SDS011;53991;46.364;17.008;2022-09-09T11:22:38;0.90;;;0.50;;
67076;SDS011;53991;46.364;17.008;2022-09-09T11:25:49;1.40;;;0.70;;
67076;SDS011;53991;46.364;17.008;2022-09-09T11:42:23;1.75;;;0.75;;
67076;SDS011;53991;46.364;17.008;2022-09-09T11:45:26;0.93;;;0.82;;
67076;SDS011;53991;46.364;17.008;2022-09-09T11:48:33;3.85;;;1.20;;
67076;SDS011;53991;46.364;17.008;2022-09-09T11:51:37;5.00;;;0.90;;
67076;SDS011;53991;46.364;17.008;2022-09-09T11:57:48;1.13;;;0.40;;
67076;SDS011;53991;46.364;17.008;2022-09-09T12:01:02;2.40;;;0.75;;
67076;SDS011;53991;46.364;17.008;2022-09-09T12:04:16;1.02;;;0.40;;
67076;SDS011;53991;46.364;17.008;2022-09-09T12:07:41;1.63;;;0.55;;
67076;SDS011;53991;46.364;17.008;2022-09-09T12:10:56;0.60;;;0.40;;
67076;SDS011;53991;46.364;17.008;2022-09-09T12:14:00;0.93;;;0.47;;
67076;SDS011;53991;46.364;17.008;2022-09-09T12:17:37;0.45;;;0.30;;
67076;SDS011;53991;46.364;17.008;2022-09-09T12:20:36;3.45;;;0.70;;
67076;SDS011;53991;46.364;17.008;2022-09-09T12:26:58;3.10;;;0.50;;
67076;SDS011;53991;46.364;17.008;2022-09-09T12:30:10;1.52;;;0.60;;
67076;SDS011;53991;46.364;17.008;2022-09-09T12:33:17;0.90;;;0.47;;
67076;SDS011;53991;46.364;17.008;2022-09-09T12:36:24;0.75;;;0.70;;
67076;SDS011;53991;46.364;17.008;2022-09-09T12:39:53;1.70;;;0.40;;
67076;SDS011;53991;46.364;17.008;2022-09-09T12:42:56;0.68;;;0.43;;
67076;SDS011;53991;46.364;17.008;2022-09-09T12:46:00;1.60;;;0.50;;
67076;SDS011;53991;46.364;17.008;2022-09-09T12:49:05;3.50;;;0.50;;
67076;SDS011;53991;46.364;17.008;2022-09-09T12:52:18;3.55;;;0.57;;
67076;SDS011;53991;46.364;17.008;2022-09-09T12:55:33;2.00;;;0.43;;
67076;SDS011;53991;46.364;17.008;2022-09-09T12:58:37;0.50;;;0.50;;
67076;SDS011;53991;46.364;17.008;2022-09-09T13:01:40;0.63;;;0.52;;
67076;SDS011;53991;46.364;17.008;2022-09-09T13:04:42;1.55;;;0.38;;
67076;SDS011;53991;46.364;17.008;2022-09-09T13:07:44;1.50;;;0.47;;
67076;SDS011;53991;46.364;17.008;2022-09-09T13:10:47;0.60;;;0.38;;
67076;SDS011;53991;46.364;17.008;2022-09-09T13:13:54;5.57;;;1.85;;
67076;SDS011;53991;46.364;17.008;2022-09-09T13:16:58;2.25;;;0.40;;
67076;SDS011;53991;46.364;17.008;2022-09-09T13:20:02;2.63;;;0.65;;
67076;SDS011;53991;46.364;17.008;2022-09-09T13:26:06;0.40;;;0.40;;
67076;SDS011;53991;46.364;17.008;2022-09-09T13:29:25;0.57;;;0.40;;
67076;SDS011;53991;46.364;17.008;2022-09-09T13:32:27;3.17;;;0.68;;
67076;SDS011;53991;46.364;17.008;2022-09-09T13:38:36;2.50;;;0.50;;
67076;SDS011;53991;46.364;17.008;2022-09-09T13:41:43;0.95;;;0.60;;
67076;SDS011;53991;46.364;17.008;2022-09-09T13:44:47;1.55;;;0.52;;
67076;SDS011;53991;46.364;17.008;2022-09-09T13:47:49;2.22;;;0.77;;
67076;SDS011;53991;46.364;17.008;2022-09-09T13:51:02;0.57;;;0.45;;
67076;SDS011;53991;46.364;17.008;2022-09-09T13:54:06;0.95;;;0.38;;
67076;SDS011;53991;46.364;17.008;2022-09-09T13:57:15;1.15;;;0.40;;
67076;SDS011;53991;46.364;17.008;2022-09-09T14:00:18;0.85;;;0.45;;
67076;SDS011;53991;46.364;17.008;2022-09-09T14:03:21;5.40;;;0.50;;
67076;SDS011;53991;46.364;17.008;2022-09-09T14:06:23;1.13;;;0.50;;
67076;SDS011;53991;46.364;17.008;2022-09-09T14:09:25;1.45;;;0.60;;
67076;SDS011;53991;46.364;17.008;2022-09-09T14:15:29;0.33;;;0.27;;
67076;SDS011;53991;46.364;17.008;2022-09-09T14:18:31;2.15;;;0.70;;
67076;SDS011;53991;46.364;17.008;2022-09-09T14:21:33;3.00;;;0.50;;
67076;SDS011;53991;46.364;17.008;2022-09-09T14:24:36;1.45;;;0.50;;
67076;SDS011;53991;46.364;17.008;2022-09-09T14:30:41;3.42;;;0.52;;
67076;SDS011;53991;46.364;17.008;2022-09-09T14:33:44;2.35;;;0.40;;
67076;SDS011;53991;46.364;17.008;2022-09-09T14:36:46;0.60;;;0.45;;
67076;SDS011;53991;46.364;17.008;2022-09-09T14:39:48;0.43;;;0.30;;
67076;SDS011;53991;46.364;17.008;2022-09-09T14:48:55;1.30;;;0.40;;
67076;SDS011;53991;46.364;17.008;2022-09-09T14:51:57;0.75;;;0.60;;
67076;SDS011;53991;46.364;17.008;2022-09-09T14:54:59;0.75;;;0.50;;
67076;SDS011;53991;46.364;17.008;2022-09-09T14:58:01;1.20;;;0.63;;
67076;SDS011;53991;46.364;17.008;2022-09-09T15:04:10;1.05;;;0.65;;
67076;SDS011;53991;46.364;17.008;2022-09-09T15:07:14;1.00;;;0.80;;
67076;SDS011;53991;46.364;17.008;2022-09-09T15:10:16;1.73;;;0.77;;
67076;SDS011;53991;46.364;17.008;2022-09-09T15:16:21;2.28;;;0.60;;
67076;SDS011;53991;46.364;17.008;2022-09-09T15:19:26;6.32;;;1.25;;
67076;SDS011;53991;46.364;17.008;2022-09-09T15:25:30;0.70;;;0.40;;
67076;SDS011;53991;46.364;17.008;2022-09-09T15:28:32;1.30;;;0.63;;
67076;SDS011;53991;46.364;17.008;2022-09-09T15:31:36;1.30;;;0.40;;
67076;SDS011;53991;46.364;17.008;2022-09-09T15:34:38;0.57;;;0.50;;
67076;SDS011;53991;46.364;17.008;2022-09-09T15:37:40;0.77;;;0.50;;
67076;SDS011;53991;46.364;17.008;2022-09-09T15:40:43;1.17;;;0.60;;
67076;SDS011;53991;46.364;17.008;2022-09-09T15:43:48;1.05;;;0.32;;
67076;SDS011;53991;46.364;17.008;2022-09-09T15:46:52;1.55;;;0.60;;
67076;SDS011;53991;46.364;17.008;2022-09-09T15:49:54;0.80;;;0.50;;
67076;SDS011;53991;46.364;17.008;2022-09-09T15:52:57;1.52;;;0.73;;
67076;SDS011;53991;46.364;17.008;2022-09-09T15:55:59;1.85;;;0.65;;
67076;SDS011;53991;46.364;17.008;2022-09-09T15:59:01;2.38;;;0.88;;
67076;SDS011;53991;46.364;17.008;2022-09-09T16:02:04;2.53;;;1.15;;
67076;SDS011;53991;46.364;17.008;2022-09-09T16:05:06;3.20;;;0.95;;
67076;SDS011;53991;46.364;17.008;2022-09-09T16:11:11;7.40;;;1.65;;
67076;SDS011;53991;46.364;17.008;2022-09-09T16:14:30;3.05;;;1.33;;
67076;SDS011;53991;46.364;17.008;2022-09-09T16:17:32;2.90;;;1.00;;
67076;SDS011;53991;46.364;17.008;2022-09-09T16:20:34;2.53;;;0.95;;
67076;SDS011;53991;46.364;17.008;2022-09-09T16:23:36;3.78;;;1.55;;
67076;SDS011;53991;46.364;17.008;2022-09-09T16:26:39;2.67;;;1.40;;
67076;SDS011;53991;46.364;17.008;2022-09-09T16:29:43;1.85;;;1.10;;
67076;SDS011;53991;46.364;17.008;2022-09-09T16:32:45;2.92;;;1.00;;
67076;SDS011;53991;46.364;17.008;2022-09-09T16:35:47;5.90;;;1.55;;
67076;SDS011;53991;46.364;17.008;2022-09-09T16:38:56;1.55;;;1.13;;
67076;SDS011;53991;46.364;17.008;2022-09-09T16:41:59;4.90;;;1.20;;
67076;SDS011;53991;46.364;17.008;2022-09-09T16:45:02;5.30;;;1.50;;
67076;SDS011;53991;46.364;17.008;2022-09-09T16:48:04;3.47;;;1.60;;
67076;SDS011;53991;46.364;17.008;2022-09-09T16:51:06;4.20;;;1.50;;
67076;SDS011;53991;46.364;17.008;2022-09-09T16:54:12;2.00;;;1.88;;
67076;SDS011;53991;46.364;17.008;2022-09-09T16:57:14;5.93;;;2.50;;
67076;SDS011;53991;46.364;17.008;2022-09-09T17:00:17;4.22;;;2.15;;
67076;SDS011;53991;46.364;17.008;2022-09-09T17:03:19;2.95;;;2.40;;
67076;SDS011;53991;46.364;17.008;2022-09-09T17:06:21;5.85;;;2.47;;
67076;SDS011;53991;46.364;17.008;2022-09-09T17:09:24;5.25;;;2.47;;
67076;SDS011;53991;46.364;17.008;2022-09-09T17:12:27;3.45;;;1.98;;
67076;SDS011;53991;46.364;17.008;2022-09-09T17:18:31;3.75;;;1.15;;
67076;SDS011;53991;46.364;17.008;2022-09-09T17:21:33;5.90;;;1.08;;
67076;SDS011;53991;46.364;17.008;2022-09-09T17:24:35;4.70;;;0.90;;
67076;SDS011;53991;46.364;17.008;2022-09-09T17:27:37;4.50;;;1.10;;
67076;SDS011;53991;46.364;17.008;2022-09-09T17:30:39;3.17;;;0.73;;
67076;SDS011;53991;46.364;17.008;2022-09-09T17:33:42;2.97;;;1.00;;
67076;SDS011;53991;46.364;17.008;2022-09-09T17:36:49;1.45;;;1.05;;
67076;SDS011;53991;46.364;17.008;2022-09-09T17:39:51;3.00;;;1.20;;
67076;SDS011;53991;46.364;17.008;2022-09-09T17:42:53;2.75;;;1.02;;
67076;SDS011;53991;46.364;17.008;2022-09-09T17:45:55;1.90;;;1.77;;
67076;SDS011;53991;46.364;17.008;2022-09-09T17:49:11;2.00;;;1.50;;
67076;SDS011;53991;46.364;17.008;2022-09-09T17:52:15;8.80;;;1.40;;
67076;SDS011;53991;46.364;17.008;2022-09-09T17:55:17;2.35;;;1.40;;
67076;SDS011;53991;46.364;17.008;2022-09-09T17:58:19;4.05;;;1.73;;
67076;SDS011;53991;46.364;17.008;2022-09-09T18:01:25;4.85;;;1.50;;
67076;SDS011;53991;46.364;17.008;2022-09-09T18:04:29;3.83;;;1.30;;
67076;SDS011;53991;46.364;17.008;2022-09-09T18:07:31;1.50;;;1.25;;
67076;SDS011;53991;46.364;17.008;2022-09-09T18:10:33;2.40;;;1.25;;
67076;SDS011;53991;46.364;17.008;2022-09-09T18:13:35;1.80;;;1.00;;
67076;SDS011;53991;46.364;17.008;2022-09-09T18:16:38;3.95;;;1.08;;
67076;SDS011;53991;46.364;17.008;2022-09-09T18:19:41;3.65;;;1.50;;
67076;SDS011;53991;46.364;17.008;2022-09-09T18:22:43;4.93;;;2.45;;
67076;SDS011;53991;46.364;17.008;2022-09-09T18:25:45;1.70;;;1.30;;
67076;SDS011;53991;46.364;17.008;2022-09-09T18:28:48;2.42;;;1.40;;
67076;SDS011;53991;46.364;17.008;2022-09-09T18:31:52;1.80;;;1.52;;
67076;SDS011;53991;46.364;17.008;2022-09-09T18:35:13;1.73;;;1.35;;
67076;SDS011;53991;46.364;17.008;2022-09-09T18:41:19;2.00;;;1.80;;
67076;SDS011;53991;46.364;17.008;2022-09-09T18:44:23;2.38;;;2.00;;
67076;SDS011;53991;46.364;17.008;2022-09-09T18:47:27;3.28;;;1.35;;
67076;SDS011;53991;46.364;17.008;2022-09-09T18:50:29;4.15;;;1.38;;
67076;SDS011;53991;46.364;17.008;2022-09-09T18:53:32;4.53;;;1.75;;
67076;SDS011;53991;46.364;17.008;2022-09-09T18:56:35;4.57;;;1.58;;
67076;SDS011;53991;46.364;17.008;2022-09-09T18:59:37;3.40;;;1.85;;
67076;SDS011;53991;46.364;17.008;2022-09-09T19:02:40;3.13;;;1.52;;
67076;SDS011;53991;46.364;17.008;2022-09-09T19:05:42;9.98;;;1.77;;
67076;SDS011;53991;46.364;17.008;2022-09-09T19:08:45;3.22;;;1.50;;
67076;SDS011;53991;46.364;17.008;2022-09-09T19:11:53;2.03;;;1.85;;
67076;SDS011;53991;46.364;17.008;2022-09-09T19:14:56;3.75;;;1.40;;
67076;SDS011;53991;46.364;17.008;2022-09-09T19:17:58;3.65;;;2.00;;
67076;SDS011;53991;46.364;17.008;2022-09-09T19:21:10;2.85;;;1.90;;
67076;SDS011;53991;46.364;17.008;2022-09-09T19:24:15;6.22;;;1.55;;
67076;SDS011;53991;46.364;17.008;2022-09-09T19:27:19;5.65;;;1.92;;
67076;SDS011;53991;46.364;17.008;2022-09-09T19:30:21;3.45;;;1.95;;
67076;SDS011;53991;46.364;17.008;2022-09-09T19:33:23;3.20;;;2.65;;
67076;SDS011;53991;46.364;17.008;2022-09-09T19:36:25;2.60;;;1.65;;
67076;SDS011;53991;46.364;17.008;2022-09-09T19:39:28;5.30;;;1.75;;
67076;SDS011;53991;46.364;17.008;2022-09-09T19:42:30;6.30;;;2.10;;
67076;SDS011;53991;46.364;17.008;2022-09-09T19:45:32;3.33;;;2.10;;
67076;SDS011;53991;46.364;17.008;2022-09-09T19:48:35;4.10;;;1.98;;
67076;SDS011;53991;46.364;17.008;2022-09-09T19:51:38;3.30;;;1.70;;
67076;SDS011;53991;46.364;17.008;2022-09-09T19:54:40;3.58;;;2.08;;
67076;SDS011;53991;46.364;17.008;2022-09-09T19:57:42;4.00;;;1.77;;
67076;SDS011;53991;46.364;17.008;2022-09-09T20:00:44;1.83;;;1.60;;
67076;SDS011;53991;46.364;17.008;2022-09-09T20:03:47;3.22;;;1.73;;
67076;SDS011;53991;46.364;17.008;2022-09-09T20:06:50;3.15;;;1.83;;
67076;SDS011;53991;46.364;17.008;2022-09-09T20:09:52;2.03;;;1.70;;
67076;SDS011;53991;46.364;17.008;2022-09-09T20:12:54;2.30;;;1.70;;
67076;SDS011;53991;46.364;17.008;2022-09-09T20:16:01;4.00;;;1.95;;
67076;SDS011;53991;46.364;17.008;2022-09-09T20:19:06;2.38;;;1.75;;
67076;SDS011;53991;46.364;17.008;2022-09-09T20:22:09;6.78;;;1.88;;
67076;SDS011;53991;46.364;17.008;2022-09-09T20:25:12;3.83;;;1.98;;
67076;SDS011;53991;46.364;17.008;2022-09-09T20:28:14;4.95;;;1.80;;
67076;SDS011;53991;46.364;17.008;2022-09-09T20:31:20;5.47;;;1.63;;
67076;SDS011;53991;46.364;17.008;2022-09-09T20:34:23;3.17;;;1.67;;
67076;SDS011;53991;46.364;17.008;2022-09-09T20:37:25;4.57;;;1.38;;
67076;SDS011;53991;46.364;17.008;2022-09-09T20:40:27;3.03;;;1.38;;
67076;SDS011;53991;46.364;17.008;2022-09-09T20:43:33;4.47;;;1.63;;
67076;SDS011;53991;46.364;17.008;2022-09-09T20:46:36;5.43;;;1.85;;
67076;SDS011;53991;46.364;17.008;2022-09-09T20:49:39;3.08;;;1.75;;
67076;SDS011;53991;46.364;17.008;2022-09-09T20:52:42;3.97;;;1.65;;
67076;SDS011;53991;46.364;17.008;2022-09-09T20:55:44;3.50;;;1.85;;